createdAt,value
2023-09-20T00:00:46.193Z,14.83
2023-09-20T00:03:17.472Z,14.67
2023-09-20T00:05:51.825Z,14.59
2023-09-20T00:08:23.962Z,14.55
2023-09-20T00:10:54.497Z,14.50
2023-09-20T00:13:24.992Z,14.46
2023-09-20T00:15:57.835Z,14.30
2023-09-20T00:18:28.243Z,14.29
2023-09-20T00:21:03.189Z,14.55
2023-09-20T00:23:35.456Z,14.97
2023-09-20T00:26:06.186Z,15.18
2023-09-20T00:28:37.830Z,15.36
2023-09-20T00:31:11.096Z,15.66
2023-09-20T00:33:41.629Z,15.68
2023-09-20T00:36:12.584Z,15.60
2023-09-20T00:38:44.632Z,15.33
2023-09-20T00:41:15.223Z,15.35
2023-09-20T00:43:45.852Z,15.04
2023-09-20T00:46:17.604Z,14.78
2023-09-20T00:48:48.836Z,14.56
2023-09-20T00:51:19.444Z,14.31
2023-09-20T00:53:52.164Z,14.29
2023-09-20T00:56:23.205Z,14.18
2023-09-20T00:58:55.706Z,14.22
2023-09-20T01:01:28.878Z,14.63
2023-09-20T01:03:59.891Z,15.24
2023-09-20T01:06:30.823Z,15.55
2023-09-20T01:09:03.083Z,15.58
2023-09-20T01:11:34.434Z,15.02
2023-09-20T01:14:05.540Z,15.13
2023-09-20T01:16:36.903Z,15.05
2023-09-20T01:19:08.475Z,15.06
2023-09-20T01:21:46.345Z,15.40
2023-09-20T01:24:19.298Z,15.58
2023-09-20T01:26:52.738Z,15.73
2023-09-20T01:29:23.294Z,15.82
2023-09-20T01:31:54.096Z,15.65
2023-09-20T01:34:25.385Z,15.44
2023-09-20T01:36:57.535Z,15.32
2023-09-20T01:39:28.320Z,15.29
2023-09-20T01:42:00.438Z,15.04
2023-09-20T01:44:31.375Z,14.79
2023-09-20T01:47:06.596Z,14.53
2023-09-20T01:49:37.762Z,14.32
2023-09-20T01:52:10.933Z,13.87
2023-09-20T01:54:42.511Z,13.68
2023-09-20T01:57:13.303Z,13.65
2023-09-20T01:59:43.783Z,13.59
2023-09-20T02:02:14.560Z,13.70
2023-09-20T02:04:45.225Z,13.84
2023-09-20T02:07:17.443Z,13.98
2023-09-20T02:09:48.157Z,14.12
2023-09-20T02:12:19.928Z,14.30
2023-09-20T02:14:50.585Z,14.48
2023-09-20T02:17:21.161Z,14.57
2023-09-20T02:19:52.128Z,14.53
2023-09-20T02:22:24.467Z,14.38
2023-09-20T02:24:55.064Z,14.42
2023-09-20T02:27:25.916Z,14.39
2023-09-20T02:29:56.595Z,14.45
2023-09-20T02:32:27.070Z,14.57
2023-09-20T02:34:58.218Z,14.73
2023-09-20T02:37:30.649Z,14.84
2023-09-20T02:40:01.275Z,14.92
2023-09-20T02:42:32.404Z,14.98
2023-09-20T02:45:03.387Z,14.84
2023-09-20T02:47:33.939Z,14.59
2023-09-20T02:50:07.482Z,14.46
2023-09-20T02:52:39.879Z,14.33
2023-09-20T02:55:12.615Z,15.02
2023-09-20T02:57:44.645Z,15.52
2023-09-20T03:00:17.803Z,15.52
2023-09-20T03:02:49.900Z,15.77
2023-09-20T03:05:21.767Z,15.67
2023-09-20T03:07:55.384Z,15.57
2023-09-20T03:10:29.394Z,15.64
2023-09-20T03:13:01.771Z,15.54
2023-09-20T03:15:34.437Z,15.61
2023-09-20T03:18:11.293Z,15.60
2023-09-20T03:20:45.853Z,15.34
2023-09-20T03:23:18.515Z,15.06
2023-09-20T03:25:49.214Z,15.01
2023-09-20T03:28:21.777Z,15.31
2023-09-20T03:30:53.104Z,15.34
2023-09-20T03:33:23.692Z,15.39
2023-09-20T03:35:54.789Z,15.36
2023-09-20T03:38:29.558Z,15.61
2023-09-20T03:41:00.268Z,15.80
2023-09-20T03:43:31.049Z,15.99
2023-09-20T03:46:03.496Z,16.01
2023-09-20T03:48:34.000Z,15.56
2023-09-20T03:51:06.448Z,15.44
2023-09-20T03:53:39.689Z,15.27
2023-09-20T03:56:11.159Z,15.37
2023-09-20T03:58:42.312Z,15.53
2023-09-20T04:01:13.883Z,15.29
2023-09-20T04:03:44.668Z,15.24
2023-09-20T04:06:15.303Z,15.26
2023-09-20T04:08:47.529Z,15.14
2023-09-20T04:11:18.205Z,14.85
2023-09-20T04:13:48.650Z,14.97
2023-09-20T04:16:19.267Z,15.00
2023-09-20T04:18:50.791Z,15.26
2023-09-20T04:21:21.346Z,15.48
2023-09-20T04:23:53.359Z,15.46
2023-09-20T04:26:23.862Z,15.43
2023-09-20T04:28:54.279Z,15.51
2023-09-20T04:31:25.388Z,15.35
2023-09-20T04:33:56.210Z,14.87
2023-09-20T04:36:26.671Z,14.42
2023-09-20T04:38:59.309Z,14.26
2023-09-20T04:41:29.967Z,14.39
2023-09-20T04:44:00.646Z,14.73
2023-09-20T04:46:31.172Z,14.95
2023-09-20T04:49:01.689Z,15.03
2023-09-20T04:51:32.825Z,14.95
2023-09-20T04:54:06.071Z,14.55
2023-09-20T04:56:36.795Z,14.55
2023-09-20T04:59:10.466Z,14.22
2023-09-20T05:01:41.097Z,14.35
2023-09-20T05:04:15.409Z,13.99
2023-09-20T05:06:47.926Z,13.55
2023-09-20T05:09:20.149Z,13.96
2023-09-20T05:11:51.530Z,13.22
2023-09-20T05:14:22.144Z,13.64
2023-09-20T05:16:52.663Z,13.21
2023-09-20T05:19:24.315Z,12.17
2023-09-20T05:21:54.907Z,11.09
2023-09-20T05:24:27.822Z,10.49
2023-09-20T05:26:58.598Z,10.44
2023-09-20T05:29:29.296Z,10.53
2023-09-20T05:31:59.890Z,10.84
2023-09-20T05:34:30.500Z,11.07
2023-09-20T05:37:01.188Z,11.27
2023-09-20T05:39:34.085Z,11.50
2023-09-20T05:42:05.256Z,11.61
2023-09-20T05:44:36.003Z,11.65
2023-09-20T05:47:07.310Z,11.91
2023-09-20T05:49:37.921Z,12.27
2023-09-20T05:52:09.168Z,12.47
2023-09-20T05:54:44.906Z,12.37
2023-09-20T05:57:16.392Z,12.44
2023-09-20T05:59:47.018Z,12.46
2023-09-20T06:02:17.671Z,12.30
2023-09-20T06:04:49.124Z,12.27
2023-09-20T06:07:19.776Z,12.23
2023-09-20T06:09:52.121Z,12.04
2023-09-20T06:12:22.704Z,11.94
2023-09-20T06:14:53.520Z,11.87
2023-09-20T06:17:24.303Z,11.80
2023-09-20T06:19:58.975Z,11.94
2023-09-20T06:22:32.105Z,12.11
2023-09-20T06:25:06.820Z,12.26
2023-09-20T06:27:37.826Z,12.39
2023-09-20T06:30:14.503Z,12.49
2023-09-20T06:32:46.251Z,12.14
2023-09-20T06:35:17.791Z,12.17
2023-09-20T06:37:49.711Z,12.16
2023-09-20T06:40:25.191Z,12.15
2023-09-20T06:42:55.872Z,12.05
2023-09-20T06:45:26.463Z,12.02
2023-09-20T06:47:57.980Z,11.94
2023-09-20T06:50:28.884Z,11.85
2023-09-20T06:52:59.986Z,11.89
2023-09-20T06:55:32.474Z,11.90
2023-09-20T07:00:39.725Z,11.86
2023-09-20T07:03:10.411Z,11.94
2023-09-20T07:05:40.991Z,11.79
2023-09-20T07:08:11.881Z,11.61
2023-09-20T07:10:45.440Z,11.53
2023-09-20T07:13:19.848Z,11.37
2023-09-20T07:15:51.069Z,11.05
2023-09-20T07:18:21.593Z,10.78
2023-09-20T07:20:56.697Z,10.71
2023-09-20T07:23:27.278Z,10.87
2023-09-20T07:25:59.490Z,10.90
2023-09-20T07:28:30.075Z,10.99
2023-09-20T07:31:00.876Z,11.05
2023-09-20T07:33:40.623Z,11.06
2023-09-20T07:36:11.787Z,10.95
2023-09-20T07:38:43.378Z,10.23
2023-09-20T07:41:16.490Z,10.80
2023-09-20T07:43:49.262Z,10.75
2023-09-20T07:46:22.417Z,10.76
2023-09-20T07:48:53.068Z,10.65
2023-09-20T07:51:27.863Z,10.54
2023-09-20T07:53:58.882Z,10.54
2023-09-20T07:56:31.107Z,10.47
2023-09-20T07:59:02.501Z,10.41
2023-09-20T08:01:33.217Z,10.38
2023-09-20T08:04:08.311Z,10.29
2023-09-20T08:06:38.979Z,10.28
2023-09-20T08:09:09.768Z,10.24
2023-09-20T08:11:42.105Z,10.24
2023-09-20T08:14:14.140Z,10.11
2023-09-20T08:17:01.354Z,10.09
2023-09-20T08:19:33.374Z,10.13
2023-09-20T08:22:03.968Z,10.16
2023-09-20T08:24:51.363Z,10.10
2023-09-20T08:27:40.267Z,9.92
2023-09-20T08:30:28.767Z,9.88
2023-09-20T08:33:16.033Z,9.80
2023-09-20T08:36:03.268Z,9.68
2023-09-20T08:38:50.423Z,9.62
2023-09-20T08:41:38.081Z,9.53
2023-09-20T08:44:27.278Z,9.38
2023-09-20T08:47:16.140Z,9.24
2023-09-20T08:50:07.031Z,9.18
2023-09-20T08:53:02.165Z,9.08
2023-09-20T08:55:50.361Z,8.96
2023-09-20T08:58:38.028Z,8.93
2023-09-20T09:01:19.512Z,8.88
2023-09-20T09:03:59.806Z,8.78
2023-09-20T09:10:37.697Z,8.53
2023-09-20T09:13:09.620Z,8.53
2023-09-20T09:15:41.651Z,8.42
2023-09-20T09:18:22.353Z,8.21
2023-09-20T09:20:56.000Z,8.08
2023-09-20T09:23:38.326Z,7.99
2023-09-20T09:26:10.131Z,7.91
2023-09-20T09:28:42.533Z,7.12
2023-09-20T09:31:14.343Z,7.71
2023-09-20T09:33:49.125Z,7.61
2023-09-20T09:36:21.609Z,7.25
2023-09-20T09:38:53.360Z,7.82
2023-09-20T09:41:25.050Z,7.87
2023-09-20T09:44:01.800Z,7.60
2023-09-20T09:46:35.112Z,7.90
2023-09-20T09:49:12.957Z,7.89
2023-09-20T09:51:47.475Z,7.87
2023-09-20T09:54:20.482Z,7.66
2023-09-20T09:56:52.838Z,7.74
2023-09-20T09:59:25.502Z,7.60
2023-09-20T10:01:59.992Z,7.54
2023-09-20T10:04:34.914Z,7.47
2023-09-20T10:07:12.943Z,7.29
2023-09-20T10:09:51.242Z,7.26
2023-09-20T10:12:26.028Z,7.08
2023-09-20T10:14:58.537Z,7.20
2023-09-20T10:17:32.893Z,7.52
2023-09-20T10:20:09.515Z,7.49
2023-09-20T10:22:43.139Z,7.43
2023-09-20T10:25:35.338Z,7.53
2023-09-20T10:28:08.618Z,7.59
2023-09-20T10:31:05.194Z,7.50
2023-09-20T10:33:49.358Z,7.34
2023-09-20T10:36:31.545Z,7.40
2023-09-20T10:39:25.476Z,7.29
2023-09-20T10:41:59.077Z,7.26
2023-09-20T10:44:33.444Z,7.19
2023-09-20T10:47:09.107Z,7.14
2023-09-20T10:49:46.003Z,6.82
2023-09-20T10:53:03.607Z,7.10
2023-09-20T10:55:43.476Z,7.18
2023-09-20T10:58:17.363Z,7.15
2023-09-20T11:00:52.882Z,7.03
2023-09-20T11:03:24.978Z,7.06
2023-09-20T11:05:56.649Z,6.93
2023-09-20T11:08:30.405Z,6.96
2023-09-20T11:11:03.024Z,6.93
2023-09-20T11:13:34.562Z,6.95
2023-09-20T11:16:06.703Z,6.97
2023-09-20T11:18:41.091Z,6.98
2023-09-20T11:21:13.578Z,6.81
2023-09-20T11:23:49.013Z,7.04
2023-09-20T11:26:31.021Z,6.95
2023-09-20T11:29:03.091Z,6.96
2023-09-20T11:31:37.722Z,6.83
2023-09-20T11:34:10.209Z,6.78
2023-09-20T11:36:45.024Z,6.79
2023-09-20T11:39:19.864Z,6.94
2023-09-20T11:41:52.219Z,7.03
2023-09-20T11:44:27.040Z,7.16
2023-09-20T11:46:59.836Z,7.16
2023-09-20T11:49:31.786Z,7.30
2023-09-20T11:52:05.338Z,7.37
2023-09-20T11:54:40.721Z,7.37
2023-09-20T11:57:12.171Z,7.50
2023-09-20T11:59:48.263Z,7.35
2023-09-20T12:02:19.840Z,7.67
2023-09-20T12:04:53.863Z,7.66
2023-09-20T12:07:25.559Z,7.59
2023-09-20T12:09:59.364Z,7.56
2023-09-20T12:12:33.512Z,7.50
2023-09-20T12:15:06.286Z,7.07
2023-09-20T12:17:38.062Z,7.47
2023-09-20T12:20:11.115Z,7.49
2023-09-20T12:22:42.735Z,7.57
2023-09-20T12:25:17.927Z,7.59
2023-09-20T12:27:50.001Z,7.59
2023-09-20T12:30:21.669Z,7.57
2023-09-20T12:32:53.264Z,7.50
2023-09-20T12:35:26.061Z,7.47
2023-09-20T12:37:58.329Z,7.45
2023-09-20T12:40:31.524Z,7.46
2023-09-20T12:43:05.706Z,7.43
2023-09-20T12:45:37.306Z,7.46
2023-09-20T12:48:41.563Z,7.39
2023-09-20T12:51:12.400Z,7.50
2023-09-20T12:53:49.560Z,7.55
2023-09-20T12:56:35.715Z,7.09
2023-09-20T12:59:13.346Z,7.49
2023-09-20T13:01:53.246Z,7.38
2023-09-20T13:04:27.172Z,7.42
2023-09-20T13:07:03.709Z,7.42
2023-09-20T13:09:37.310Z,7.43
2023-09-20T14:04:22.085Z,6.82
2023-09-20T14:23:17.984Z,6.79
2023-09-20T14:25:54.459Z,6.82
2023-09-20T14:28:25.150Z,6.87
2023-09-20T14:30:56.436Z,6.96
2023-09-20T14:33:27.723Z,7.02
2023-09-20T14:36:02.737Z,7.09
2023-09-20T14:38:38.746Z,7.16
2023-09-20T14:41:10.576Z,7.14
2023-09-20T14:43:41.547Z,7.01
2023-09-20T14:46:12.468Z,7.03
2023-09-20T14:48:47.475Z,7.05
2023-09-20T14:51:21.940Z,7.00
2023-09-20T14:54:00.546Z,6.97
2023-09-20T14:56:34.945Z,6.98
2023-09-20T14:59:06.153Z,6.98
2023-09-20T15:01:39.864Z,7.02
2023-09-20T15:04:18.026Z,7.00
2023-09-20T15:09:57.341Z,7.04
2023-09-20T15:12:33.733Z,7.06
2023-09-20T15:15:07.473Z,7.08
2023-09-20T15:17:39.572Z,7.05
2023-09-20T15:20:17.794Z,7.04
2023-09-20T15:22:50.023Z,6.94
2023-09-20T15:25:27.428Z,6.95
2023-09-20T15:27:58.746Z,6.75
2023-09-20T15:30:33.525Z,6.85
2023-09-20T15:33:06.725Z,6.85
2023-09-20T15:35:42.905Z,6.82
2023-09-20T15:38:16.050Z,6.78
2023-09-20T15:40:52.464Z,6.64
2023-09-20T15:43:28.714Z,6.78
2023-09-20T15:45:59.549Z,6.71
2023-09-20T15:48:35.677Z,6.70
2023-09-20T15:51:11.776Z,6.59
2023-09-20T15:53:44.910Z,6.68
2023-09-20T15:56:18.029Z,6.59
2023-09-20T15:58:48.816Z,6.58
2023-09-20T16:01:21.462Z,6.54
2023-09-20T16:03:53.724Z,6.63
2023-09-20T16:06:27.986Z,6.66
2023-09-20T16:09:01.935Z,6.63
2023-09-20T16:11:46.417Z,6.68
2023-09-20T16:14:18.867Z,6.65
2023-09-20T16:16:53.239Z,6.71
2023-09-20T16:19:26.677Z,6.18
2023-09-20T16:22:00.796Z,6.58
2023-09-20T16:24:34.104Z,6.66
2023-09-20T16:27:09.150Z,6.68
2023-09-20T16:29:40.128Z,6.73
2023-09-20T16:32:16.125Z,6.73
2023-09-20T16:34:47.718Z,6.74
2023-09-20T16:37:23.694Z,6.72
2023-09-20T16:39:54.899Z,6.67
2023-09-20T16:42:34.577Z,6.68
2023-09-20T16:45:07.351Z,6.66
2023-09-20T16:47:40.823Z,6.39
2023-09-20T16:50:16.092Z,6.33
2023-09-20T16:52:48.153Z,6.26
2023-09-20T16:55:43.035Z,6.59
2023-09-20T16:58:16.441Z,6.58
2023-09-20T17:00:49.963Z,6.59
2023-09-20T17:03:26.361Z,6.20
2023-09-20T17:05:57.472Z,6.53
2023-09-20T17:08:30.824Z,6.58
2023-09-20T17:11:01.890Z,6.61
2023-09-20T17:13:41.626Z,6.60
2023-09-20T17:16:14.898Z,6.60
2023-09-20T17:18:47.639Z,6.71
2023-09-20T17:21:22.718Z,6.71
2023-09-20T17:23:58.228Z,6.54
2023-09-20T17:26:31.888Z,6.69
2023-09-20T17:29:04.374Z,6.68
2023-09-20T17:31:36.973Z,6.79
2023-09-20T17:34:09.139Z,6.80
2023-09-20T17:36:56.585Z,6.66
2023-09-20T17:39:36.709Z,6.63
2023-09-20T17:42:16.657Z,6.65
2023-09-20T17:44:55.210Z,6.57
2023-09-20T17:47:34.387Z,6.71
2023-09-20T17:50:05.233Z,6.66
2023-09-20T17:52:36.838Z,6.65
2023-09-20T17:55:11.789Z,6.68
2023-09-20T17:57:42.639Z,6.17
2023-09-20T18:00:19.911Z,6.55
2023-09-20T18:02:53.791Z,6.45
2023-09-20T18:05:26.936Z,6.43
2023-09-20T18:08:03.037Z,6.39
2023-09-20T18:10:37.101Z,6.50
2023-09-20T18:13:14.422Z,6.35
2023-09-20T18:15:50.391Z,6.39
2023-09-20T18:18:25.406Z,6.38
2023-09-20T18:21:02.437Z,6.43
2023-09-20T18:23:35.131Z,6.46
2023-09-20T18:26:10.003Z,6.41
2023-09-20T18:28:41.009Z,6.43
2023-09-20T18:31:28.962Z,6.37
2023-09-20T18:34:03.117Z,6.48
2023-09-20T18:36:39.116Z,6.43
2023-09-20T18:39:14.312Z,6.39
2023-09-20T18:41:54.046Z,6.34
2023-09-20T18:44:25.473Z,6.32
2023-09-20T18:47:00.840Z,6.24
2023-09-20T18:49:31.513Z,6.18
2023-09-20T18:52:02.737Z,6.26
2023-09-20T18:54:37.302Z,6.31
2023-09-20T18:57:10.200Z,6.17
2023-09-20T18:59:44.400Z,6.13
2023-09-20T19:02:16.658Z,6.30
2023-09-20T19:04:47.698Z,6.37
2023-09-20T19:07:19.100Z,6.32
2023-09-20T19:09:56.346Z,6.28
2023-09-20T19:12:27.003Z,6.18
2023-09-20T19:14:57.980Z,6.05
2023-09-20T19:17:34.640Z,6.04
2023-09-20T19:20:14.356Z,6.01
2023-09-20T19:22:45.791Z,5.79
2023-09-20T19:25:19.488Z,6.02
2023-09-20T19:27:50.694Z,5.95
2023-09-20T19:30:21.556Z,5.99
2023-09-20T19:32:53.950Z,5.95
2023-09-20T19:35:25.275Z,6.00
2023-09-20T19:37:58.725Z,6.05
2023-09-20T19:40:30.330Z,6.07
2023-09-20T19:43:01.251Z,6.11
2023-09-20T19:45:31.975Z,6.09
2023-09-20T19:48:05.156Z,6.14
2023-09-20T19:50:35.849Z,6.16
2023-09-20T19:53:06.727Z,6.14
2023-09-20T19:55:43.430Z,6.14
2023-09-20T19:58:14.249Z,6.13
2023-09-20T20:00:45.373Z,5.91
2023-09-20T20:03:17.830Z,6.00
2023-09-20T20:05:51.168Z,6.05
2023-09-20T20:08:23.347Z,6.03
2023-09-20T20:10:56.088Z,6.04
2023-09-20T20:13:27.011Z,6.11
2023-09-20T20:15:57.760Z,6.14
2023-09-20T20:18:30.674Z,6.11
2023-09-20T20:21:04.976Z,6.10
2023-09-20T20:23:36.123Z,6.11
2023-09-20T20:26:13.152Z,6.09
2023-09-20T20:28:44.587Z,6.06
2023-09-20T20:31:17.008Z,5.97
2023-09-20T20:33:49.843Z,5.82
2023-09-20T20:36:20.486Z,6.11
2023-09-20T20:38:51.038Z,6.14
2023-09-20T20:41:21.878Z,6.00
2023-09-20T20:43:52.450Z,5.88
2023-09-20T20:46:24.683Z,6.07
2023-09-20T20:48:59.770Z,6.04
2023-09-20T20:51:31.155Z,6.09
2023-09-20T20:54:02.330Z,6.16
2023-09-20T20:56:33.409Z,5.69
2023-09-20T20:59:03.941Z,6.25
2023-09-20T21:01:34.629Z,6.47
2023-09-20T21:04:11.349Z,6.61
2023-09-20T21:06:41.942Z,6.69
2023-09-20T21:09:12.435Z,6.77
2023-09-20T21:11:43.176Z,6.86
2023-09-20T21:14:13.777Z,6.96
2023-09-20T21:16:45.105Z,7.03
2023-09-20T21:19:18.423Z,6.90
2023-09-20T21:21:48.925Z,6.97
2023-09-20T21:24:19.486Z,7.26
2023-09-20T21:26:50.069Z,7.37
2023-09-20T21:29:20.633Z,7.50
2023-09-20T21:31:51.232Z,7.59
2023-09-20T21:34:23.501Z,7.75
2023-09-20T21:36:54.168Z,7.96
2023-09-20T21:39:24.652Z,8.13
2023-09-20T21:41:55.197Z,8.40
2023-09-20T21:44:25.903Z,8.71
2023-09-20T21:46:56.788Z,9.05
2023-09-20T21:49:29.072Z,9.42
2023-09-20T21:51:59.540Z,9.68
2023-09-20T21:54:30.022Z,9.89
2023-09-20T21:57:00.589Z,10.06
2023-09-20T21:59:31.220Z,10.23
2023-09-20T22:02:01.832Z,10.46
2023-09-20T22:04:33.973Z,10.66
2023-09-20T22:07:06.485Z,10.72
2023-09-20T22:09:38.560Z,10.87
2023-09-20T22:12:10.034Z,11.01
2023-09-20T22:14:40.895Z,10.94
2023-09-20T22:17:13.876Z,11.44
2023-09-20T22:19:47.686Z,11.60
2023-09-20T22:22:18.317Z,11.75
2023-09-20T22:24:50.103Z,11.86
2023-09-20T22:27:22.122Z,12.01
2023-09-20T22:29:52.786Z,12.12
2023-09-20T22:32:23.449Z,12.24
2023-09-20T22:34:55.605Z,12.34
2023-09-20T22:37:26.461Z,12.59
2023-09-20T22:39:59.701Z,12.73
2023-09-20T22:42:30.249Z,12.84
2023-09-20T22:45:00.922Z,12.94
2023-09-20T22:47:32.422Z,13.00
2023-09-20T22:50:06.564Z,13.14
2023-09-20T22:52:37.113Z,13.22
2023-09-20T22:55:09.146Z,13.30
2023-09-20T22:57:39.735Z,13.40
2023-09-20T23:00:12.506Z,13.48
2023-09-20T23:02:44.313Z,12.90
2023-09-20T23:05:16.694Z,13.78
2023-09-20T23:07:51.786Z,13.85
2023-09-20T23:10:25.805Z,13.88
2023-09-20T23:12:56.865Z,14.13
2023-09-20T23:15:29.568Z,14.20
2023-09-20T23:20:39.317Z,14.51
2023-09-20T23:23:12.380Z,14.58
2023-09-20T23:25:44.349Z,14.64
2023-09-20T23:28:16.409Z,14.82
2023-09-20T23:30:48.823Z,14.97
2023-09-20T23:33:23.420Z,15.13
2023-09-20T23:35:58.936Z,15.32
2023-09-20T23:38:31.914Z,15.43
2023-09-20T23:41:07.378Z,15.52
2023-09-20T23:43:37.799Z,15.62
2023-09-20T23:46:10.955Z,15.62
2023-09-20T23:48:43.396Z,15.61
2023-09-20T23:51:16.609Z,15.63
2023-09-20T23:53:47.410Z,15.71
2023-09-20T23:56:19.581Z,15.78
2023-09-20T23:58:50.757Z,15.83
